createdAt,value
2019-04-26T00:04:10.211Z,4.30
2019-04-26T00:09:34.397Z,4.58
2019-04-26T00:14:45.569Z,4.25
2019-04-26T00:19:50.793Z,4.90
2019-04-26T00:24:59.043Z,4.90
2019-04-26T00:30:08.400Z,5.33
2019-04-26T00:35:16.429Z,5.15
2019-04-26T00:40:23.087Z,5.22
2019-04-26T00:45:42.006Z,5.45
2019-04-26T00:50:52.190Z,5.83
2019-04-26T00:55:59.316Z,5.97
2019-04-26T01:01:05.467Z,6.08
2019-04-26T01:06:15.991Z,6.42
2019-04-26T01:11:25.950Z,6.80
2019-04-26T01:16:45.501Z,7.03
2019-04-26T01:21:44.960Z,6.62
2019-04-26T01:27:03.907Z,6.58
2019-04-26T01:32:15.454Z,6.05
2019-04-26T01:37:22.483Z,6.70
2019-04-26T01:42:58.289Z,6.90
2019-04-26T01:48:05.649Z,6.92
2019-04-26T01:53:13.721Z,7.10
2019-04-26T01:58:23.394Z,7.40
2019-04-26T02:05:02.925Z,7.80
2019-04-26T02:08:39.292Z,7.40
2019-04-26T02:13:49.782Z,7.75
2019-04-26T02:19:00.373Z,7.62
2019-04-26T02:24:14.150Z,7.65
2019-04-26T02:29:25.271Z,7.72
2019-04-26T02:34:37.289Z,8.23
2019-04-26T02:39:41.892Z,8.00
2019-04-26T02:44:59.411Z,8.30
2019-04-26T02:50:09.171Z,8.08
2019-04-26T02:55:49.443Z,8.75
2019-04-26T03:01:19.014Z,9.28
2019-04-26T03:06:08.076Z,9.28
2019-04-26T03:11:19.077Z,9.03
2019-04-26T03:16:45.671Z,8.80
2019-04-26T03:22:01.196Z,9.25
2019-04-26T03:27:25.653Z,9.05
2019-04-26T03:33:12.338Z,9.53
2019-04-26T03:39:01.828Z,8.58
2019-04-26T03:44:45.871Z,9.95
2019-04-26T03:50:31.193Z,9.28
2019-04-26T03:55:43.694Z,10.40
2019-04-26T04:01:07.199Z,10.20
2019-04-26T04:11:24.712Z,10.48
2019-04-26T04:17:01.467Z,10.35
2019-04-26T04:22:39.070Z,10.03
2019-04-26T04:28:03.433Z,10.90
2019-04-26T04:33:40.721Z,10.48
2019-04-26T04:39:12.339Z,11.10
2019-04-26T04:45:14.062Z,11.03
2019-04-26T04:50:46.870Z,10.65
2019-04-26T04:55:57.264Z,10.55
2019-04-26T05:01:42.860Z,11.97
2019-04-26T05:07:19.607Z,11.20
2019-04-26T05:12:46.571Z,12.50
2019-04-26T05:18:35.930Z,11.88
2019-04-26T05:24:07.740Z,11.08
2019-04-26T05:29:39.288Z,11.88
2019-04-26T05:34:53.034Z,11.53
2019-04-26T05:40:16.465Z,11.78
2019-04-26T05:51:38.784Z,12.18
2019-04-26T05:57:25.286Z,12.18
2019-04-26T06:02:54.679Z,12.23
2019-04-26T06:08:33.384Z,12.93
2019-04-26T06:14:02.042Z,12.68
2019-04-26T06:19:48.970Z,12.35
2019-04-26T06:25:37.238Z,13.08
2019-04-26T06:30:50.982Z,13.03
2019-04-26T06:35:55.796Z,13.30
2019-04-26T06:41:40.886Z,12.98
2019-04-26T06:47:23.119Z,13.53
2019-04-26T06:52:27.334Z,13.58
2019-04-26T06:58:13.073Z,13.10
2019-04-26T07:03:34.269Z,12.58
2019-04-26T07:08:41.022Z,13.48
2019-04-26T07:14:21.679Z,13.53
2019-04-26T07:19:54.067Z,12.33
2019-04-26T07:25:40.283Z,12.98
2019-04-26T07:31:06.409Z,13.83
2019-04-26T07:42:51.539Z,13.15
2019-04-26T07:48:22.572Z,11.90
2019-04-26T07:53:43.287Z,12.20
2019-04-26T07:59:25.053Z,11.85
2019-04-26T08:04:40.660Z,11.63
2019-04-26T08:09:59.535Z,11.08
2019-04-26T08:15:20.876Z,11.20
2019-04-26T08:20:39.104Z,11.15
2019-04-26T08:25:45.051Z,11.00
2019-04-26T08:30:51.552Z,11.68
2019-04-26T08:35:55.817Z,11.78
2019-04-26T08:41:04.339Z,11.55
2019-04-26T08:46:16.474Z,13.05
2019-04-26T08:51:22.098Z,13.10
2019-04-26T08:56:43.147Z,12.43
2019-04-26T09:01:52.112Z,11.57
2019-04-26T09:07:00.716Z,11.18
2019-04-26T09:12:22.996Z,11.28
2019-04-26T09:17:23.292Z,11.18
2019-04-26T09:22:29.394Z,11.25
2019-04-26T09:27:38.613Z,12.58
2019-04-26T09:32:49.360Z,10.75
2019-04-26T09:37:58.247Z,10.80
2019-04-26T09:43:10.407Z,11.10
2019-04-26T09:48:29.902Z,11.28
2019-04-26T09:53:34.685Z,9.95
2019-04-26T09:58:39.017Z,13.00
2019-04-26T10:03:43.344Z,11.35
2019-04-26T10:08:48.052Z,10.18
2019-04-26T10:13:56.448Z,9.40
2019-04-26T10:19:03.294Z,9.18
2019-04-26T10:24:08.418Z,8.90
2019-04-26T10:29:13.142Z,7.50
2019-04-26T10:34:17.383Z,6.55
2019-04-26T10:39:22.121Z,5.30
2019-04-26T10:44:26.313Z,6.25
2019-04-26T10:49:44.952Z,6.58
2019-04-26T10:55:12.176Z,14.50
2019-04-26T11:00:34.192Z,5.65
2019-04-26T11:05:38.528Z,4.80
2019-04-26T11:10:48.733Z,4.33
2019-04-26T11:15:49.169Z,4.15
2019-04-26T11:20:53.610Z,4.45
2019-04-26T11:25:58.056Z,4.37
2019-04-26T11:31:03.837Z,4.35
2019-04-26T11:36:08.760Z,4.62
2019-04-26T11:41:13.136Z,4.22
2019-04-26T11:46:17.425Z,4.35
2019-04-26T11:51:23.502Z,5.40
2019-04-26T11:56:27.632Z,5.90
2019-04-26T12:01:31.949Z,5.92
2019-04-26T12:06:37.800Z,5.78
2019-04-26T12:11:49.312Z,5.67
2019-04-26T12:16:51.288Z,5.85
2019-04-26T12:21:54.136Z,5.20
2019-04-26T12:26:58.489Z,5.75
2019-04-26T12:32:02.807Z,5.75
2019-04-26T12:37:07.016Z,5.33
2019-04-26T12:42:12.288Z,5.10
2019-04-26T12:47:19.165Z,5.20
2019-04-26T12:52:23.375Z,4.97
2019-04-26T12:57:27.719Z,5.20
2019-04-26T13:02:31.982Z,4.75
2019-04-26T13:07:39.009Z,4.10
2019-04-26T13:12:59.717Z,4.20
2019-04-26T13:18:07.312Z,4.28
2019-04-26T13:23:10.038Z,3.58
2019-04-26T13:28:15.798Z,3.67
2019-04-26T13:33:23.208Z,3.80
2019-04-26T13:38:26.689Z,3.20
2019-04-26T13:43:30.897Z,3.58
2019-04-26T13:48:54.970Z,3.58
2019-04-26T13:53:59.162Z,4.30
2019-04-26T13:59:03.479Z,4.75
2019-04-26T14:04:09.009Z,4.37
2019-04-26T14:09:14.063Z,4.50
2019-04-26T14:14:18.286Z,4.70
2019-04-26T14:19:22.697Z,4.90
2019-04-26T14:24:31.260Z,3.98
2019-04-26T14:29:35.453Z,4.87
2019-04-26T14:34:40.456Z,4.97
2019-04-26T14:39:50.769Z,5.08
2019-04-26T14:44:51.870Z,4.80
2019-04-26T14:49:57.724Z,5.03
2019-04-26T14:55:02.206Z,5.30
2019-04-26T15:00:07.360Z,4.47
2019-04-26T15:05:13.222Z,4.45
2019-04-26T15:10:19.082Z,5.05
2019-04-26T15:15:26.962Z,4.47
2019-04-26T15:20:29.275Z,4.75
2019-04-26T15:25:33.580Z,4.45
2019-04-26T15:30:43.388Z,4.67
2019-04-26T15:35:44.653Z,4.00
2019-04-26T15:40:59.573Z,3.77
2019-04-26T15:46:14.536Z,3.70
2019-04-26T15:51:32.465Z,3.90
2019-04-26T15:56:36.768Z,2.90
2019-04-26T16:01:41.829Z,4.10
2019-04-26T16:06:47.000Z,4.15
2019-04-26T16:11:54.822Z,3.87
2019-04-26T16:16:58.408Z,3.95
2019-04-26T16:22:03.113Z,3.60
2019-04-26T16:27:07.425Z,2.80
2019-04-26T16:32:16.901Z,2.10
2019-04-26T16:37:23.792Z,2.30
2019-04-26T16:42:27.888Z,2.60
2019-04-26T16:47:35.258Z,2.65
2019-04-26T16:52:42.293Z,2.62
2019-04-26T16:57:54.906Z,2.50
2019-04-26T17:02:50.031Z,2.77
2019-04-26T17:07:58.804Z,2.30
2019-04-26T17:13:00.280Z,2.90
2019-04-26T17:18:04.723Z,2.45
2019-04-26T17:23:12.353Z,2.20
2019-04-26T17:28:18.017Z,2.30
2019-04-26T17:33:28.087Z,2.60
2019-04-26T17:38:28.974Z,2.50
2019-04-26T17:43:33.283Z,2.60
2019-04-26T17:48:37.561Z,2.75
2019-04-26T17:53:44.053Z,2.55
2019-04-26T17:58:52.451Z,2.50
2019-04-26T18:03:55.837Z,2.30
2019-04-26T18:08:59.801Z,2.90
2019-04-26T18:14:06.879Z,2.55
2019-04-26T18:19:14.713Z,2.47
2019-04-26T18:24:18.935Z,2.40
2019-04-26T18:29:28.840Z,2.10
2019-04-26T18:34:30.491Z,2.62
2019-04-26T18:39:35.543Z,2.37
2019-04-26T18:44:47.530Z,2.42
2019-04-26T18:49:45.769Z,2.02
2019-04-26T18:54:52.481Z,1.60
2019-04-26T18:59:57.218Z,1.98
2019-04-26T19:05:01.584Z,1.80
2019-04-26T19:10:07.383Z,1.98
2019-04-26T19:15:55.368Z,2.00
2019-04-26T19:21:42.302Z,1.92
2019-04-26T19:26:49.921Z,2.60
2019-04-26T19:32:13.877Z,2.50
2019-04-26T19:37:23.385Z,2.20
2019-04-26T19:42:43.202Z,2.40
2019-04-26T19:48:07.126Z,2.22
2019-04-26T19:53:51.677Z,2.25
2019-04-26T19:59:00.701Z,2.67
2019-04-26T20:10:04.964Z,2.37
2019-04-26T20:20:43.548Z,2.83
2019-04-26T20:26:22.653Z,2.87
2019-04-26T20:37:10.996Z,3.08
2019-04-26T20:42:23.189Z,2.15
2019-04-26T20:47:55.794Z,2.80
2019-04-26T20:53:03.743Z,3.40
2019-04-26T20:58:11.668Z,4.10
2019-04-26T21:03:23.715Z,3.45
2019-04-26T21:08:25.801Z,4.00
2019-04-26T21:13:33.208Z,3.83
2019-04-26T21:18:39.967Z,3.90
2019-04-26T21:23:45.109Z,4.15
2019-04-26T21:29:15.484Z,4.65
2019-04-26T21:34:16.871Z,4.70
2019-04-26T21:39:27.260Z,4.90
2019-04-26T21:44:31.684Z,5.35
2019-04-26T21:49:38.077Z,5.78
2019-04-26T21:54:43.678Z,5.92
2019-04-26T21:59:49.645Z,6.20
2019-04-26T22:04:54.607Z,6.03
2019-04-26T22:10:10.675Z,6.58
2019-04-26T22:15:17.997Z,6.00
2019-04-26T22:20:27.106Z,5.87
2019-04-26T22:25:36.085Z,5.70
2019-04-26T22:30:43.442Z,5.65
2019-04-26T22:35:50.523Z,5.40
2019-04-26T22:40:58.104Z,5.62
2019-04-26T22:46:05.018Z,6.20
2019-04-26T22:51:14.025Z,5.95
2019-04-26T22:56:26.168Z,5.85
2019-04-26T23:01:33.039Z,5.62
2019-04-26T23:06:51.391Z,5.65
2019-04-26T23:13:48.780Z,5.50
2019-04-26T23:17:41.285Z,4.70
2019-04-26T23:22:45.985Z,5.30
2019-04-26T23:27:56.718Z,5.00
2019-04-26T23:33:04.261Z,5.08
2019-04-26T23:38:13.551Z,5.40
2019-04-26T23:43:22.519Z,5.12
2019-04-26T23:48:29.161Z,5.50
2019-04-26T23:53:35.893Z,5.85
2019-04-26T23:58:44.046Z,5.78
